Time;durP1;ratioP1;P1;durP2;ratioP2;P2;SDS_P1;SDS_P2;PMS_P1;PMS_P2;Temp;Humidity;BMP_temperature;BMP_pressure;BME280_temperature;BME280_humidity;BME280_pressure;Samples;Min_cycle;Max_cycle;Signal;HPM_P1;HPM_P2
2023/03/20 00:01:16;;;;;;;8.45;6.30;;;12.70;66.70;;;;;;5026106;28;20044;-48
2023/03/20 00:03:45;;;;;;;10.65;6.97;;;12.70;66.50;;;;;;5032094;28;20037;-49
2023/03/20 00:06:15;;;;;;;9.48;7.47;;;12.70;66.60;;;;;;5032263;28;20148;-50
2023/03/20 00:08:46;;;;;;;11.10;7.05;;;12.60;66.50;;;;;;5027609;28;20124;-49
2023/03/20 00:11:29;;;;;;;9.55;7.50;;;12.60;66.40;;;;;;5032652;28;20564;-51
2023/03/20 00:14:08;;;;;;;9.63;6.85;;;12.60;66.60;;;;;;5028273;28;20116;-47
2023/03/20 00:16:40;;;;;;;7.78;6.97;;;12.60;66.50;;;;;;5031263;28;20490;-47
2023/03/20 00:19:16;;;;;;;8.60;7.30;;;12.60;66.70;;;;;;5020042;28;20042;-47
2023/03/20 00:21:46;;;;;;;11.50;8.02;;;12.60;66.80;;;;;;5022602;28;20073;-47
2023/03/20 00:24:14;;;;;;;8.18;6.80;;;12.60;66.70;;;;;;5013832;28;20044;-45
2023/03/20 00:26:42;;;;;;;9.80;6.63;;;12.60;66.80;;;;;;5013851;28;20037;-47
2023/03/20 00:29:18;;;;;;;8.98;6.78;;;12.60;67.00;;;;;;5013325;28;20430;-50
2023/03/20 00:31:45;;;;;;;8.38;6.70;;;12.60;67.10;;;;;;5012449;28;20518;-47
2023/03/20 00:34:15;;;;;;;10.38;7.55;;;12.60;66.90;;;;;;4996932;28;20042;-45
2023/03/20 00:36:44;;;;;;;;;;;12.60;66.90;;;;;;5014354;28;20473;-51
2023/03/20 00:39:11;;;;;;;8.98;6.30;;;12.60;67.00;;;;;;5029761;28;20522;-46
2023/03/20 00:42:00;;;;;;;8.65;6.97;;;12.60;66.50;;;;;;5023764;28;20049;-49
2023/03/20 00:44:36;;;;;;;9.40;6.95;;;12.60;66.80;;;;;;5027708;28;20060;-45
2023/03/20 00:47:14;;;;;;;9.95;7.15;;;12.60;66.90;;;;;;5007629;28;20053;-47
2023/03/20 00:49:42;;;;;;;9.23;7.47;;;12.70;67.00;;;;;;5010659;28;20042;-46
2023/03/20 00:52:11;;;;;;;10.38;6.75;;;12.60;66.80;;;;;;5022739;28;20103;-51
2023/03/20 00:54:38;;;;;;;8.93;7.10;;;12.70;67.00;;;;;;5029779;28;20060;-49
2023/03/20 00:57:16;;;;;;;9.40;7.53;;;12.70;67.00;;;;;;5013096;28;20045;-47
2023/03/20 00:59:55;;;;;;;10.85;7.70;;;12.70;67.20;;;;;;5009318;28;20041;-51
2023/03/20 01:02:25;;;;;;;9.18;6.90;;;12.70;67.40;;;;;;5027434;28;20050;-49
2023/03/20 01:04:55;;;;;;;10.85;7.30;;;12.70;67.00;;;;;;5013433;28;20049;-48
2023/03/20 01:07:24;;;;;;;9.90;7.93;;;12.70;67.10;;;;;;5012000;28;20041;-51
2023/03/20 01:09:51;;;;;;;10.45;8.05;;;12.80;67.10;;;;;;5009401;28;20057;-45
2023/03/20 01:12:18;;;;;;;9.63;6.95;;;12.80;67.10;;;;;;5030915;28;20512;-50
2023/03/20 01:14:53;;;;;;;12.23;7.05;;;12.80;67.30;;;;;;5030507;28;20065;-46
2023/03/20 01:17:22;;;;;;;12.27;8.97;;;12.80;67.40;;;;;;5008004;28;20050;-46
2023/03/20 01:19:51;;;;;;;12.27;8.73;;;12.80;67.10;;;;;;5028822;28;20299;-48
2023/03/20 01:22:18;;;;;;;11.90;7.63;;;12.80;67.00;;;;;;5013469;28;20397;-45
2023/03/20 01:24:46;;;;;;;14.00;9.50;;;12.80;67.00;;;;;;5012568;28;20049;-51
2023/03/20 01:27:15;;;;;;;12.00;8.00;;;12.80;66.90;;;;;;5031032;28;20464;-48
2023/03/20 01:29:45;;;;;;;10.88;8.68;;;12.80;66.90;;;;;;5002479;28;20045;-45
2023/03/20 01:32:18;;;;;;;13.90;9.52;;;12.80;66.70;;;;;;5005550;28;20049;-46
2023/03/20 01:34:50;;;;;;;11.38;8.73;;;12.80;66.80;;;;;;5012289;28;20517;-50
2023/03/20 01:37:25;;;;;;;13.18;9.60;;;12.70;66.20;;;;;;5009161;28;20051;-49
2023/03/20 01:39:56;;;;;;;14.82;9.82;;;12.70;66.20;;;;;;5012181;28;20628;-48
2023/03/20 01:42:25;;;;;;;14.98;10.18;;;12.70;66.30;;;;;;5012987;28;20065;-50
2023/03/20 01:44:52;;;;;;;12.50;9.30;;;12.70;66.30;;;;;;5012102;28;20049;-48
2023/03/20 01:47:24;;;;;;;11.90;8.70;;;12.70;65.90;;;;;;5006925;28;20048;-48
2023/03/20 01:50:21;;;;;;;12.35;9.13;;;12.60;65.70;;;;;;5007714;28;20160;-47
2023/03/20 01:53:01;;;;;;;12.05;8.75;;;12.60;65.80;;;;;;5011014;28;20060;-47
2023/03/20 01:55:29;;;;;;;14.82;9.48;;;12.60;65.60;;;;;;5008976;28;20041;-48
2023/03/20 01:58:02;;;;;;;12.60;9.30;;;12.60;65.50;;;;;;5005005;28;20068;-47
2023/03/20 02:00:38;;;;;;;12.90;8.27;;;12.60;65.40;;;;;;5009963;28;20045;-45
2023/03/20 02:03:12;;;;;;;14.55;9.50;;;12.60;65.60;;;;;;5012895;28;20411;-47
2023/03/20 02:05:58;;;;;;;12.50;9.27;;;12.60;65.60;;;;;;5026682;28;20143;-46
2023/03/20 02:08:45;;;;;;;10.45;7.82;;;12.60;65.40;;;;;;5011209;28;20530;-48
2023/03/20 02:11:14;;;;;;;11.73;8.48;;;12.50;65.20;;;;;;5012224;28;20055;-45
2023/03/20 02:13:41;;;;;;;12.65;8.77;;;12.50;65.10;;;;;;5030149;28;20059;-47
2023/03/20 02:16:13;;;;;;;10.00;7.78;;;12.50;65.10;;;;;;5012451;28;20049;-46
2023/03/20 02:18:56;;;;;;;9.45;7.50;;;12.50;65.00;;;;;;5011086;28;20041;-49
2023/03/20 02:21:23;;;;;;;10.15;7.95;;;12.50;64.90;;;;;;4994802;28;20050;-48
2023/03/20 02:24:18;;;;;;;11.18;7.95;;;12.40;64.70;;;;;;5010274;28;20038;-47
2023/03/20 02:27:10;;;;;;;8.45;6.60;;;12.40;64.80;;;;;;5011029;28;20053;-50
2023/03/20 02:30:05;;;;;;;9.70;7.53;;;12.30;64.70;;;;;;5011246;28;20052;-46
2023/03/20 02:33:04;;;;;;;10.15;7.55;;;12.30;64.80;;;;;;5000190;28;20414;-48
2023/03/20 02:35:40;;;;;;;11.23;7.40;;;12.30;64.80;;;;;;5011327;28;20045;-45
2023/03/20 02:38:21;;;;;;;11.27;7.63;;;12.20;64.60;;;;;;5011890;28;20081;-47
2023/03/20 02:40:50;;;;;;;10.07;7.15;;;12.10;64.60;;;;;;5007631;28;20536;-47
2023/03/20 02:43:50;;;;;;;8.93;6.90;;;12.00;64.60;;;;;;5012043;28;20127;-48
2023/03/20 02:46:48;;;;;;;7.90;6.30;;;12.00;64.80;;;;;;5016928;28;20064;-46
2023/03/20 02:49:48;;;;;;;8.95;6.70;;;12.00;64.80;;;;;;4990988;28;20612;-46
2023/03/20 02:52:39;;;;;;;9.85;6.90;;;11.90;64.70;;;;;;5017891;28;20051;-49
2023/03/20 02:55:32;;;;;;;8.65;6.53;;;11.80;64.50;;;;;;5010940;28;20045;-49
2023/03/20 02:58:39;;;;;;;7.95;6.05;;;11.80;64.90;;;;;;5011206;28;20038;-48
2023/03/20 03:01:20;;;;;;;9.88;7.00;;;11.70;64.90;;;;;;5013866;28;20034;-48
2023/03/20 03:03:53;;;;;;;10.15;6.70;;;11.60;64.80;;;;;;5009690;28;20049;-46
2023/03/20 03:06:30;;;;;;;7.68;6.03;;;11.60;64.80;;;;;;5028942;28;20095;-47
2023/03/20 03:09:05;;;;;;;7.53;6.18;;;11.50;65.00;;;;;;5018757;28;20609;-47
2023/03/20 03:11:39;;;;;;;8.60;6.80;;;11.50;64.90;;;;;;5005233;28;20046;-51
2023/03/20 03:14:18;;;;;;;7.32;6.20;;;11.40;64.90;;;;;;5010595;28;20711;-48
2023/03/20 03:16:47;;;;;;;7.03;6.32;;;11.40;65.00;;;;;;5011521;28;20049;-47
2023/03/20 03:19:20;;;;;;;8.32;6.40;;;11.30;64.90;;;;;;5021235;28;20046;-47
2023/03/20 03:21:50;;;;;;;7.72;6.57;;;11.30;65.00;;;;;;5009725;28;20104;-49
2023/03/20 03:24:20;;;;;;;9.93;7.25;;;11.30;65.10;;;;;;5011561;28;20049;-47
2023/03/20 03:27:05;;;;;;;9.17;6.70;;;11.30;65.30;;;;;;5003341;28;20041;-50
2023/03/20 03:29:38;;;;;;;9.57;6.45;;;11.30;65.30;;;;;;5022583;28;20293;-49
2023/03/20 03:32:26;;;;;;;9.80;5.93;;;11.20;65.20;;;;;;5011445;28;20054;-46
2023/03/20 03:34:53;;;;;;;9.10;7.15;;;11.20;65.40;;;;;;5011088;28;20153;-46
2023/03/20 03:37:23;;;;;;;9.10;6.72;;;11.20;65.30;;;;;;5009761;28;20045;-47
2023/03/20 03:40:06;;;;;;;8.73;6.57;;;11.10;65.30;;;;;;5004929;28;20042;-46
2023/03/20 03:42:40;;;;;;;11.65;7.50;;;11.10;65.60;;;;;;5028531;28;20041;-45
2023/03/20 03:45:21;;;;;;;8.95;6.45;;;11.20;65.60;;;;;;5010289;28;20049;-50
2023/03/20 03:48:00;;;;;;;10.25;7.28;;;11.10;65.70;;;;;;5024982;28;20036;-48
2023/03/20 03:50:34;;;;;;;10.70;7.30;;;11.10;65.50;;;;;;5008228;28;20054;-50
2023/03/20 03:53:13;;;;;;;11.75;8.35;;;11.10;65.60;;;;;;5009292;28;20485;-46
2023/03/20 03:56:09;;;;;;;11.73;7.10;;;11.10;65.60;;;;;;5011061;28;20056;-48
2023/03/20 03:58:47;;;;;;;8.90;6.00;;;11.10;65.60;;;;;;5008694;28;20057;-47
2023/03/20 04:01:16;;;;;;;11.30;6.65;;;11.00;65.60;;;;;;5023017;28;20029;-48
2023/03/20 04:03:57;;;;;;;12.70;7.07;;;11.00;65.60;;;;;;5010502;28;20403;-46
2023/03/20 04:06:25;;;;;;;11.27;7.10;;;11.00;65.90;;;;;;5023496;28;20049;-46
2023/03/20 04:08:55;;;;;;;10.05;6.80;;;10.90;65.80;;;;;;5023224;28;20057;-47
2023/03/20 04:11:25;;;;;;;9.75;7.00;;;10.90;65.90;;;;;;5026878;28;20457;-50
2023/03/20 04:13:52;;;;;;;8.48;6.75;;;10.90;66.10;;;;;;5010656;28;20049;-47
2023/03/20 04:16:21;;;;;;;10.60;6.82;;;10.90;66.00;;;;;;5010554;28;20395;-46
2023/03/20 04:18:48;;;;;;;10.68;7.20;;;10.80;66.10;;;;;;5008638;28;20476;-46
2023/03/20 04:21:18;;;;;;;11.10;7.55;;;10.80;66.10;;;;;;5016914;28;20574;-47
2023/03/20 04:23:53;;;;;;;11.82;8.15;;;10.80;66.20;;;;;;5009310;28;20088;-46
2023/03/20 04:26:22;;;;;;;12.43;8.18;;;10.80;66.30;;;;;;5010667;28;20049;-51
2023/03/20 04:28:49;;;;;;;11.77;8.52;;;10.80;66.30;;;;;;5027944;28;20044;-49
2023/03/20 04:31:35;;;;;;;9.25;7.13;;;10.80;66.40;;;;;;5023591;28;20709;-48
2023/03/20 04:34:28;;;;;;;10.98;7.60;;;10.70;66.40;;;;;;5013172;28;20565;-45
2023/03/20 04:37:07;;;;;;;11.50;8.20;;;10.70;66.40;;;;;;5007712;28;20127;-47
2023/03/20 04:39:46;;;;;;;10.73;8.02;;;10.70;66.50;;;;;;5012747;28;20045;-46
2023/03/20 04:42:16;;;;;;;10.93;7.72;;;10.70;66.60;;;;;;5032104;28;20038;-47
2023/03/20 04:44:45;;;;;;;9.68;7.25;;;10.70;66.70;;;;;;5012641;28;20037;-48
2023/03/20 04:47:17;;;;;;;10.30;7.25;;;10.70;66.80;;;;;;5006712;28;20049;-46
2023/03/20 04:49:44;;;;;;;10.10;6.82;;;10.70;66.90;;;;;;5013040;28;20136;-46
2023/03/20 04:52:11;;;;;;;12.13;8.57;;;10.70;67.00;;;;;;5022591;28;20041;-48
2023/03/20 04:54:43;;;;;;;13.00;8.57;;;10.70;67.00;;;;;;5013782;28;20049;-47
2023/03/20 04:57:10;;;;;;;12.77;8.02;;;10.70;67.00;;;;;;5012998;28;20512;-44
2023/03/20 04:59:38;;;;;;;12.15;8.32;;;10.70;67.00;;;;;;5004909;28;20445;-47
2023/03/20 05:02:05;;;;;;;12.30;8.50;;;10.70;67.00;;;;;;5013198;28;20045;-47
2023/03/20 05:04:38;;;;;;;12.68;7.63;;;10.70;67.00;;;;;;5030063;28;20052;-50
2023/03/20 05:07:05;;;;;;;15.43;8.85;;;10.70;67.10;;;;;;5007318;28;20068;-49
2023/03/20 05:09:45;;;;;;;10.18;6.75;;;10.70;67.10;;;;;;5010074;28;20549;-47
2023/03/20 05:12:13;;;;;;;15.27;8.60;;;10.70;67.10;;;;;;5013462;28;20057;-47
2023/03/20 05:14:58;;;;;;;12.43;8.82;;;10.70;67.20;;;;;;5013670;28;20111;-47
2023/03/20 05:17:51;;;;;;;15.35;8.85;;;10.70;67.20;;;;;;5011212;28;20124;-46
2023/03/20 05:20:37;;;;;;;13.43;9.35;;;10.70;67.20;;;;;;5006966;28;20571;-47
2023/03/20 05:23:25;;;;;;;13.77;8.73;;;10.70;67.10;;;;;;4994219;28;20048;-49
2023/03/20 05:26:18;;;;;;;11.50;8.20;;;10.70;67.10;;;;;;5008817;28;20458;-50
2023/03/20 05:29:10;;;;;;;14.75;8.82;;;10.70;67.10;;;;;;4999202;28;20589;-50
2023/03/20 05:31:56;;;;;;;13.23;8.45;;;10.70;67.10;;;;;;5031185;28;20056;-49
2023/03/20 05:34:38;;;;;;;14.15;9.00;;;10.70;67.10;;;;;;5030224;28;20049;-45
2023/03/20 05:37:13;;;;;;;10.82;7.88;;;10.70;67.20;;;;;;5008772;28;20066;-46
2023/03/20 05:40:02;;;;;;;12.38;8.57;;;10.70;67.20;;;;;;5007670;28;20493;-46
2023/03/20 05:42:37;;;;;;;14.35;9.32;;;10.70;67.20;;;;;;5022575;28;20113;-45
2023/03/20 05:45:10;;;;;;;11.48;8.15;;;10.60;67.10;;;;;;5028396;28;20049;-47
2023/03/20 05:47:45;;;;;;;15.18;8.43;;;10.60;67.20;;;;;;5011853;28;20050;-47
2023/03/20 05:50:23;;;;;;;13.88;9.02;;;10.70;67.20;;;;;;5009400;28;20049;-46
2023/03/20 05:53:08;;;;;;;13.68;9.25;;;10.60;67.20;;;;;;5026869;28;20059;-46
2023/03/20 05:55:56;;;;;;;14.50;8.52;;;10.60;67.20;;;;;;5030442;28;20053;-51
2023/03/20 05:58:39;;;;;;;10.57;7.28;;;10.60;67.10;;;;;;5028176;28;20037;-48
2023/03/20 06:01:21;;;;;;;12.48;7.80;;;10.60;67.10;;;;;;5007284;28;20088;-46
2023/03/20 06:04:07;;;;;;;14.05;8.02;;;10.60;67.20;;;;;;5020589;28;20049;-46
2023/03/20 06:06:50;;;;;;;11.90;8.23;;;10.60;67.20;;;;;;5006643;28;20103;-47
2023/03/20 06:09:20;;;;;;;11.23;8.40;;;10.60;67.30;;;;;;5011905;28;20048;-45
2023/03/20 06:11:49;;;;;;;10.65;8.10;;;10.70;67.50;;;;;;5019383;28;20064;-48
2023/03/20 06:14:21;;;;;;;13.75;8.60;;;10.70;67.50;;;;;;5002499;28;20103;-46
2023/03/20 06:16:57;;;;;;;10.88;7.30;;;10.70;67.50;;;;;;5024648;28;20474;-46
2023/03/20 06:19:25;;;;;;;10.25;7.53;;;10.70;67.40;;;;;;5024817;28;20029;-46
2023/03/20 06:21:58;;;;;;;8.20;6.47;;;10.70;67.40;;;;;;5008851;28;20099;-46
2023/03/20 06:24:25;;;;;;;8.85;6.75;;;10.70;67.40;;;;;;5007661;28;20068;-46
2023/03/20 06:26:58;;;;;;;12.55;7.15;;;10.80;67.40;;;;;;5012200;28;20052;-51
2023/03/20 06:29:25;;;;;;;12.63;8.32;;;10.80;67.40;;;;;;5001163;28;20503;-45
2023/03/20 06:31:57;;;;;;;;;;;10.80;67.30;;;;;;5005603;28;20041;-51
2023/03/20 06:34:29;;;;;;;10.25;6.47;;;10.90;67.40;;;;;;5012472;28;19933;-46
2023/03/20 06:36:58;;;;;;;11.02;7.30;;;10.90;66.90;;;;;;5012905;28;20038;-47
2023/03/20 06:39:27;;;;;;;9.73;7.30;;;10.90;66.90;;;;;;5011115;28;20045;-49
2023/03/20 06:41:56;;;;;;;10.70;7.17;;;10.90;66.90;;;;;;5010481;28;20041;-47
2023/03/20 06:44:25;;;;;;;10.60;7.95;;;10.90;66.90;;;;;;5006904;28;20047;-46
2023/03/20 06:47:10;;;;;;;12.60;7.75;;;10.90;66.90;;;;;;5022043;28;20064;-47
2023/03/20 06:49:37;;;;;;;11.20;7.78;;;10.90;66.90;;;;;;5008104;28;20053;-46
2023/03/20 06:52:07;;;;;;;11.60;8.25;;;10.90;66.90;;;;;;5003355;28;20047;-46
2023/03/20 06:54:36;;;;;;;10.63;7.70;;;10.90;66.80;;;;;;5001808;28;20046;-45
2023/03/20 06:57:02;;;;;;;10.77;7.60;;;11.00;67.40;;;;;;5010448;28;20037;-46
2023/03/20 06:59:30;;;;;;;16.88;8.50;;;11.00;66.80;;;;;;5009487;28;20050;-47
2023/03/20 07:01:59;;;;;;;13.35;8.85;;;11.00;66.70;;;;;;5021316;28;20072;-50
2023/03/20 07:04:26;;;;;;;11.18;7.60;;;11.10;66.70;;;;;;5010756;28;20120;-48
2023/03/20 07:06:57;;;;;;;11.70;7.78;;;11.00;66.80;;;;;;5010915;28;20041;-50
2023/03/20 07:09:27;;;;;;;13.05;7.43;;;11.10;66.80;;;;;;5009498;28;20407;-49
2023/03/20 07:11:54;;;;;;;14.45;8.52;;;11.10;66.80;;;;;;5019673;28;20077;-48
2023/03/20 07:14:25;;;;;;;11.20;7.57;;;11.20;66.80;;;;;;5010382;28;20256;-50
2023/03/20 07:17:11;;;;;;;14.90;8.88;;;11.20;66.80;;;;;;5009606;28;20091;-47
2023/03/20 07:19:38;;;;;;;12.90;9.20;;;11.20;66.60;;;;;;5009749;28;20095;-48
2023/03/20 07:22:07;;;;;;;15.38;9.63;;;11.30;66.40;;;;;;5005332;28;20045;-47
2023/03/20 07:24:38;;;;;;;14.32;9.57;;;11.30;66.40;;;;;;5010134;28;20049;-48
2023/03/20 07:27:12;;;;;;;13.85;8.70;;;11.30;66.30;;;;;;5022314;28;20076;-49
2023/03/20 07:29:39;;;;;;;15.82;9.23;;;11.40;66.10;;;;;;4993682;28;20053;-48
2023/03/20 07:32:13;;;;;;;13.70;8.18;;;11.40;66.10;;;;;;5008121;28;20053;-48
2023/03/20 07:34:48;;;;;;;13.55;8.90;;;11.40;66.00;;;;;;5009517;28;20042;-52
2023/03/20 07:37:17;;;;;;;13.85;9.45;;;11.50;66.60;;;;;;5003758;28;20030;-47
2023/03/20 07:39:58;;;;;;;14.68;8.68;;;11.50;66.10;;;;;;5006317;28;20045;-52
2023/03/20 07:42:44;;;;;;;12.30;8.75;;;11.50;66.00;;;;;;5012226;28;20049;-47
2023/03/20 07:45:15;;;;;;;14.43;8.95;;;11.60;66.10;;;;;;5016817;28;20037;-49
2023/03/20 07:47:47;;;;;;;11.73;9.00;;;11.60;65.90;;;;;;5006064;28;20042;-52
2023/03/20 07:50:17;;;;;;;13.25;9.10;;;11.70;65.60;;;;;;5006281;28;20136;-51
2023/03/20 07:52:47;;;;;;;14.73;8.10;;;11.70;65.80;;;;;;5027094;28;20041;-51
2023/03/20 07:55:15;;;;;;;14.18;7.88;;;11.80;65.10;;;;;;5018639;28;20076;-49
2023/03/20 07:57:44;;;;;;;12.25;8.57;;;11.80;65.10;;;;;;5007873;28;20033;-47
2023/03/20 08:00:21;;;;;;;11.25;7.53;;;11.80;64.90;;;;;;5007766;28;20589;-50
2023/03/20 08:02:48;;;;;;;10.75;6.65;;;11.80;65.00;;;;;;5023732;28;20418;-47
2023/03/20 08:05:17;;;;;;;12.32;7.50;;;11.80;65.00;;;;;;5023661;28;20036;-52
2023/03/20 08:07:45;;;;;;;12.07;7.72;;;11.90;65.90;;;;;;5024441;28;20564;-49
2023/03/20 08:10:12;;;;;;;10.70;6.55;;;11.90;65.30;;;;;;5025272;28;20076;-49
2023/03/20 08:12:41;;;;;;;10.93;6.82;;;12.00;64.90;;;;;;5024699;28;20046;-50
2023/03/20 08:15:09;;;;;;;10.55;6.82;;;12.00;64.50;;;;;;5031868;28;20060;-50
2023/03/20 08:17:36;;;;;;;10.50;7.03;;;12.10;64.30;;;;;;5023830;28;20045;-49
2023/03/20 08:20:06;;;;;;;11.35;6.88;;;12.20;64.10;;;;;;5039546;22;20469;-45
2023/03/20 08:22:36;;;;;;;11.52;6.75;;;12.20;64.00;;;;;;5015318;28;20104;-50
2023/03/20 08:25:03;;;;;;;13.93;6.70;;;12.20;63.70;;;;;;5031883;28;20506;-46
2023/03/20 08:27:31;;;;;;;9.77;6.22;;;12.30;63.70;;;;;;5032751;28;20513;-48
2023/03/20 08:29:58;;;;;;;10.10;6.63;;;12.30;63.50;;;;;;5029592;28;20048;-47
2023/03/20 08:32:27;;;;;;;9.13;6.03;;;12.40;63.40;;;;;;5014590;28;20042;-48
2023/03/20 08:34:56;;;;;;;9.57;6.50;;;12.40;63.20;;;;;;5029447;28;20045;-47
2023/03/20 08:37:25;;;;;;;9.63;5.40;;;12.50;63.00;;;;;;5021607;28;20082;-49
2023/03/20 08:39:51;;;;;;;9.02;5.00;;;12.50;62.90;;;;;;5030551;28;20049;-48
2023/03/20 08:42:18;;;;;;;7.80;6.20;;;12.50;62.30;;;;;;5014747;28;20045;-46
2023/03/20 08:44:44;;;;;;;9.30;5.70;;;12.50;62.00;;;;;;5028629;28;20041;-47
2023/03/20 08:47:16;;;;;;;10.50;5.03;;;12.60;62.20;;;;;;5020487;28;20100;-46
2023/03/20 08:49:44;;;;;;;8.35;4.40;;;12.60;61.70;;;;;;5029134;28;20132;-48
2023/03/20 08:52:14;;;;;;;8.98;4.72;;;12.60;61.20;;;;;;5022225;28;20450;-48
2023/03/20 08:54:43;;;;;;;9.07;4.63;;;12.60;61.20;;;;;;5030204;28;20107;-46
2023/03/20 08:57:11;;;;;;;8.43;4.05;;;12.60;60.80;;;;;;5032509;28;20045;-47
2023/03/20 08:59:38;;;;;;;6.45;2.63;;;12.60;60.40;;;;;;5031400;28;20071;-48
2023/03/20 09:02:10;;;;;;;5.80;2.60;;;12.60;60.10;;;;;;5021949;28;20111;-49
2023/03/20 09:04:37;;;;;;;5.38;2.90;;;12.60;59.80;;;;;;5028876;28;20063;-50
2023/03/20 09:07:03;;;;;;;5.88;3.22;;;12.60;59.70;;;;;;5028045;28;20064;-46
2023/03/20 09:09:32;;;;;;;5.85;2.92;;;12.50;59.50;;;;;;5026115;28;20552;-48
2023/03/20 09:11:59;;;;;;;6.43;2.90;;;12.50;59.80;;;;;;5023119;28;20049;-45
2023/03/20 09:14:27;;;;;;;6.03;3.13;;;12.60;59.70;;;;;;5032233;28;20049;-46
2023/03/20 09:16:54;;;;;;;6.72;3.42;;;12.60;59.70;;;;;;5030791;28;20136;-47
2023/03/20 09:19:21;;;;;;;4.93;3.20;;;12.60;59.60;;;;;;5022285;28;20047;-49
2023/03/20 09:21:49;;;;;;;5.95;2.95;;;12.60;59.40;;;;;;5018783;28;20088;-47
2023/03/20 09:24:16;;;;;;;7.28;2.75;;;12.70;59.40;;;;;;5028248;28;20041;-46
2023/03/20 09:26:46;;;;;;;5.28;2.78;;;12.70;59.00;;;;;;5031280;28;20441;-47
2023/03/20 09:29:12;;;;;;;3.17;2.70;;;12.70;58.20;;;;;;5031467;28;20052;-48
2023/03/20 09:31:39;;;;;;;7.13;3.25;;;12.70;58.30;;;;;;5021504;28;20053;-49
2023/03/20 09:34:08;;;;;;;5.25;3.28;;;12.70;58.50;;;;;;5028502;28;20045;-47
2023/03/20 09:36:35;;;;;;;4.68;3.35;;;12.70;58.50;;;;;;5031744;28;20502;-46
2023/03/20 09:39:04;;;;;;;6.07;2.70;;;12.70;58.30;;;;;;5019083;28;20050;-48
2023/03/20 09:41:35;;;;;;;4.43;2.63;;;12.80;57.90;;;;;;5025730;28;20045;-47
2023/03/20 09:44:44;;;;;;;3.40;2.25;;;12.70;58.10;;;;;;5031120;28;20084;-48
2023/03/20 09:47:20;;;;;;;4.63;2.65;;;12.80;57.50;;;;;;5018063;28;20045;-48
2023/03/20 09:50:06;;;;;;;4.22;2.67;;;12.80;57.60;;;;;;5028547;28;20064;-48
2023/03/20 09:52:48;;;;;;;6.25;2.67;;;12.80;57.90;;;;;;5017073;28;20046;-47
2023/03/20 09:55:20;;;;;;;5.20;2.42;;;12.80;57.90;;;;;;5031482;28;20050;-46
2023/03/20 09:57:55;;;;;;;4.22;2.28;;;12.90;58.10;;;;;;5030470;28;20085;-45
2023/03/20 10:00:28;;;;;;;4.30;2.70;;;12.90;57.70;;;;;;5008679;28;20060;-46
2023/03/20 10:03:11;;;;;;;6.13;2.47;;;13.00;57.60;;;;;;5008692;28;20141;-47
2023/03/20 10:05:46;;;;;;;4.88;2.28;;;13.00;57.40;;;;;;5029733;28;20045;-45
2023/03/20 10:08:17;;;;;;;3.85;2.47;;;13.00;57.60;;;;;;5027314;28;20406;-46
2023/03/20 10:10:44;;;;;;;8.43;2.42;;;13.00;57.50;;;;;;5007877;28;20049;-47
2023/03/20 10:13:30;;;;;;;4.55;2.38;;;13.10;57.30;;;;;;5031287;28;20048;-48
2023/03/20 10:16:25;;;;;;;4.45;2.30;;;13.10;56.40;;;;;;5030508;28;20121;-48
2023/03/20 10:19:11;;;;;;;6.20;2.35;;;13.10;56.10;;;;;;5018686;28;20454;-48
2023/03/20 10:21:48;;;;;;;5.68;2.08;;;13.10;56.50;;;;;;5016144;28;20502;-49
2023/03/20 10:24:47;;;;;;;4.88;2.40;;;13.10;56.70;;;;;;5028498;28;20042;-46
2023/03/20 10:27:24;;;;;;;6.68;2.58;;;13.00;56.40;;;;;;5030733;28;20055;-46
2023/03/20 10:30:22;;;;;;;5.22;2.22;;;13.00;56.40;;;;;;5018791;28;20056;-50
2023/03/20 10:33:23;;;;;;;4.85;2.53;;;13.00;56.00;;;;;;5028628;28;20049;-46
2023/03/20 10:36:20;;;;;;;7.00;2.38;;;12.90;56.20;;;;;;5029999;28;20061;-45
2023/03/20 10:39:02;;;;;;;7.55;2.70;;;12.80;56.40;;;;;;5026792;28;20029;-46
2023/03/20 10:41:35;;;;;;;6.65;3.15;;;12.80;56.60;;;;;;5019994;28;20052;-46
2023/03/20 10:44:14;;;;;;;7.45;3.03;;;12.70;57.50;;;;;;5023273;28;20044;-46
2023/03/20 10:46:47;;;;;;;6.18;3.10;;;12.70;57.70;;;;;;5021159;28;20054;-49
2023/03/20 10:49:35;;;;;;;4.80;3.08;;;12.70;58.30;;;;;;5023894;28;20175;-46
2023/03/20 10:52:16;;;;;;;9.13;3.40;;;12.60;58.70;;;;;;5016264;28;20033;-47
2023/03/20 10:54:49;;;;;;;6.55;3.17;;;12.60;59.30;;;;;;5024107;28;20049;-47
2023/03/20 10:57:25;;;;;;;6.68;3.03;;;12.60;59.90;;;;;;5029367;28;20042;-48
2023/03/20 10:59:55;;;;;;;5.90;3.10;;;12.60;61.10;;;;;;5025523;28;20048;-45
2023/03/20 11:02:26;;;;;;;4.85;3.47;;;12.70;61.00;;;;;;5020703;28;20049;-45
2023/03/20 11:05:10;;;;;;;10.65;3.80;;;12.70;61.20;;;;;;5029779;28;20038;-48
2023/03/20 11:07:37;;;;;;;7.55;3.80;;;12.80;62.10;;;;;;5028067;28;20120;-48
2023/03/20 11:10:06;;;;;;;5.93;3.95;;;12.80;61.70;;;;;;5016526;28;20102;-45
2023/03/20 11:12:36;;;;;;;6.82;3.83;;;12.80;61.90;;;;;;5030043;28;20055;-49
2023/03/20 11:15:32;;;;;;;5.93;3.72;;;13.00;62.60;;;;;;5030191;28;20045;-45
2023/03/20 11:18:02;;;;;;;6.88;4.03;;;13.10;63.20;;;;;;5021524;28;20528;-48
2023/03/20 11:20:55;;;;;;;5.65;3.75;;;13.10;62.70;;;;;;5025820;28;20179;-48
2023/03/20 11:23:33;;;;;;;5.50;3.10;;;13.20;62.80;;;;;;5026522;28;20147;-47
2023/03/20 11:26:04;;;;;;;4.78;3.15;;;13.30;62.10;;;;;;5029405;28;20469;-47
2023/03/20 11:28:51;;;;;;;7.90;3.42;;;13.40;61.70;;;;;;5029969;28;20532;-47
2023/03/20 11:31:33;;;;;;;5.47;3.10;;;13.40;61.30;;;;;;5015988;28;20057;-48
2023/03/20 11:34:12;;;;;;;5.82;3.67;;;13.40;60.90;;;;;;5023748;28;20050;-48
2023/03/20 11:36:55;;;;;;;6.05;3.55;;;13.40;61.00;;;;;;5029268;28;20056;-46
2023/03/20 11:39:37;;;;;;;7.45;3.90;;;13.40;60.90;;;;;;5018729;28;20048;-47
2023/03/20 11:42:20;;;;;;;7.63;3.83;;;13.30;61.50;;;;;;5023720;28;20038;-45
2023/03/20 11:44:58;;;;;;;7.43;3.45;;;13.40;62.00;;;;;;5033881;28;20045;-47
2023/03/20 11:47:37;;;;;;;6.25;3.33;;;13.50;61.80;;;;;;5020178;28;20120;-46
2023/03/20 11:50:06;;;;;;;6.22;3.90;;;13.60;62.20;;;;;;5024693;28;20049;-46
2023/03/20 11:52:35;;;;;;;5.35;3.10;;;13.70;62.40;;;;;;5020738;28;20096;-46
2023/03/20 11:55:33;;;;;;;5.63;3.28;;;13.80;61.90;;;;;;5026373;28;20049;-47
2023/03/20 11:58:03;;;;;;;5.43;2.78;;;13.90;61.70;;;;;;5029074;28;20580;-46
2023/03/20 12:00:39;;;;;;;8.13;3.10;;;14.00;60.70;;;;;;5031886;28;20056;-50
2023/03/20 12:03:41;;;;;;;5.15;3.08;;;14.10;60.50;;;;;;5026346;28;20391;-46
2023/03/20 12:06:20;;;;;;;6.70;3.13;;;14.20;60.20;;;;;;5013603;28;20558;-47
2023/03/20 12:08:54;;;;;;;4.47;2.58;;;14.30;59.90;;;;;;5027357;28;20121;-49
2023/03/20 12:11:42;;;;;;;7.50;3.55;;;14.30;59.60;;;;;;5032912;28;20049;-46
2023/03/20 12:14:29;;;;;;;3.30;2.25;;;14.40;58.80;;;;;;5026097;28;20050;-47
2023/03/20 12:17:22;;;;;;;2.47;2.03;;;14.50;59.20;;;;;;5031802;28;20041;-50
2023/03/20 12:19:56;;;;;;;4.80;2.78;;;14.50;58.90;;;;;;5018521;28;20045;-47
2023/03/20 12:22:30;;;;;;;4.13;2.10;;;14.50;58.40;;;;;;5026394;28;20497;-47
2023/03/20 12:25:23;;;;;;;4.63;2.22;;;14.50;58.00;;;;;;5033086;28;20056;-48
2023/03/20 12:28:05;;;;;;;5.57;2.50;;;14.50;57.70;;;;;;5015298;28;20526;-50
2023/03/20 12:30:50;;;;;;;4.70;2.08;;;14.60;57.80;;;;;;5028369;28;20063;-45
2023/03/20 12:33:30;;;;;;;6.72;2.17;;;14.60;57.50;;;;;;5027079;28;20072;-46
2023/03/20 12:36:03;;;;;;;8.02;2.65;;;14.60;57.20;;;;;;5032249;28;20103;-47
2023/03/20 12:38:35;;;;;;;5.68;2.53;;;14.60;58.20;;;;;;5032021;28;20045;-48
2023/03/20 12:41:13;;;;;;;8.45;3.25;;;14.70;57.90;;;;;;5023341;28;20055;-50
2023/03/20 12:44:05;;;;;;;6.03;3.05;;;14.70;57.30;;;;;;5032804;28;20045;-46
2023/03/20 12:46:57;;;;;;;4.33;2.30;;;14.80;57.50;;;;;;5019972;28;20046;-47
2023/03/20 12:50:05;;;;;;;8.85;2.50;;;14.90;57.60;;;;;;5021850;28;20307;-48
2023/03/20 12:52:59;;;;;;;6.00;2.45;;;15.00;57.50;;;;;;5028674;28;20046;-49
2023/03/20 12:55:43;;;;;;;5.45;2.20;;;15.10;57.00;;;;;;5032124;28;20056;-45
2023/03/20 12:58:24;;;;;;;6.97;2.17;;;15.20;56.70;;;;;;5020039;28;20049;-46
2023/03/20 13:01:09;;;;;;;3.72;2.30;;;15.30;56.70;;;;;;5023588;28;20132;-45
2023/03/20 13:03:47;;;;;;;5.20;2.47;;;15.30;57.10;;;;;;5020623;28;20045;-47
2023/03/20 13:06:28;;;;;;;6.60;2.90;;;15.40;56.50;;;;;;5020795;28;20065;-46
2023/03/20 13:09:16;;;;;;;10.48;3.65;;;15.50;56.40;;;;;;5026173;28;20510;-47
2023/03/20 13:12:02;;;;;;;5.95;3.10;;;15.60;56.20;;;;;;5019486;28;20417;-45
2023/03/20 13:14:47;;;;;;;5.57;2.85;;;15.60;55.40;;;;;;5023341;28;20045;-47
2023/03/20 13:17:37;;;;;;;7.43;2.80;;;15.70;55.70;;;;;;5024396;28;20112;-46
2023/03/20 13:20:29;;;;;;;5.45;3.08;;;15.70;55.70;;;;;;5022793;28;20564;-47
2023/03/20 13:23:22;;;;;;;9.07;3.28;;;15.70;55.00;;;;;;5030964;28;20037;-47
2023/03/20 13:26:01;;;;;;;3.63;2.70;;;15.70;54.20;;;;;;5029794;28;20041;-46
2023/03/20 13:28:44;;;;;;;7.45;2.90;;;15.70;54.20;;;;;;5028842;28;20129;-47